createdAt,value
2022-11-29T00:01:39.482Z,7.84
2022-11-29T00:04:06.970Z,7.85
2022-11-29T00:06:35.611Z,7.87
2022-11-29T00:09:11.414Z,7.88
2022-11-29T00:11:59.197Z,7.88
2022-11-29T00:14:28.153Z,7.90
2022-11-29T00:17:01.759Z,7.91
2022-11-29T00:19:32.212Z,7.92
2022-11-29T00:22:00.831Z,7.92
2022-11-29T00:24:31.438Z,7.93
2022-11-29T00:26:59.091Z,7.94
2022-11-29T00:29:28.076Z,7.96
2022-11-29T00:31:55.537Z,7.96
2022-11-29T00:34:23.027Z,7.96
2022-11-29T00:36:50.440Z,7.96
2022-11-29T00:39:18.724Z,7.96
2022-11-29T00:41:46.137Z,7.95
2022-11-29T00:44:19.616Z,7.96
2022-11-29T00:46:48.486Z,7.95
2022-11-29T00:49:16.251Z,7.95
2022-11-29T00:51:43.599Z,7.96
2022-11-29T00:54:10.971Z,7.96
2022-11-29T00:56:38.446Z,7.94
2022-11-29T00:59:05.879Z,7.95
2022-11-29T01:01:33.272Z,7.94
2022-11-29T01:04:02.333Z,7.93
2022-11-29T01:06:29.836Z,7.90
2022-11-29T01:08:57.194Z,7.89
2022-11-29T01:11:27.742Z,7.86
2022-11-29T01:13:59.556Z,7.85
2022-11-29T01:16:30.191Z,7.82
2022-11-29T01:18:57.713Z,7.79
2022-11-29T01:21:25.187Z,7.77
2022-11-29T01:23:53.595Z,7.76
2022-11-29T01:26:25.224Z,7.71
2022-11-29T01:28:54.282Z,7.64
2022-11-29T01:31:29.457Z,7.62
2022-11-29T01:34:00.995Z,7.62
2022-11-29T01:36:30.125Z,7.60
2022-11-29T01:39:01.225Z,7.58
2022-11-29T01:41:33.133Z,7.54
2022-11-29T01:44:11.514Z,7.53
2022-11-29T01:46:43.724Z,7.50
2022-11-29T01:49:16.705Z,7.48
2022-11-29T01:52:03.851Z,7.47
2022-11-29T01:54:36.878Z,7.44
2022-11-29T01:57:08.199Z,7.43
2022-11-29T01:59:42.170Z,7.40
2022-11-29T02:02:18.177Z,7.40
2022-11-29T02:04:48.273Z,7.38
2022-11-29T02:07:16.294Z,7.36
2022-11-29T02:09:43.756Z,7.34
2022-11-29T02:13:00.676Z,7.31
2022-11-29T02:15:54.989Z,7.26
2022-11-29T02:19:11.561Z,7.22
2022-11-29T02:22:06.490Z,7.19
2022-11-29T02:25:04.819Z,7.17
2022-11-29T02:28:06.112Z,7.16
2022-11-29T02:31:29.476Z,7.12
2022-11-29T02:34:25.534Z,7.11
2022-11-29T02:37:18.481Z,7.09
2022-11-29T02:40:07.745Z,7.10
2022-11-29T02:43:25.113Z,7.10
2022-11-29T02:46:20.419Z,7.10
2022-11-29T02:49:07.670Z,7.11
2022-11-29T02:51:50.983Z,7.16
2022-11-29T02:54:45.725Z,7.19
2022-11-29T02:57:29.398Z,7.23
2022-11-29T03:00:05.455Z,7.25
2022-11-29T03:02:49.921Z,7.29
2022-11-29T03:05:44.653Z,7.31
2022-11-29T03:08:23.501Z,7.33
2022-11-29T03:11:09.119Z,7.37
2022-11-29T03:13:57.046Z,7.37
2022-11-29T03:16:52.267Z,7.40
2022-11-29T03:20:13.186Z,7.42
2022-11-29T03:23:16.166Z,7.43
2022-11-29T03:26:10.491Z,7.45
2022-11-29T03:29:07.178Z,7.48
2022-11-29T03:31:47.562Z,7.49
2022-11-29T03:34:57.408Z,7.52
2022-11-29T03:37:52.901Z,7.54
2022-11-29T03:40:38.504Z,7.55
2022-11-29T03:43:20.125Z,7.57
2022-11-29T03:46:06.231Z,7.58
2022-11-29T03:48:42.656Z,7.60
2022-11-29T03:51:33.644Z,7.61
2022-11-29T03:54:15.015Z,7.60
2022-11-29T03:56:42.837Z,7.60
2022-11-29T03:59:31.543Z,7.61
2022-11-29T04:02:30.316Z,7.62
2022-11-29T04:05:25.337Z,7.60
2022-11-29T04:08:35.016Z,7.62
2022-11-29T04:12:03.522Z,7.60
2022-11-29T04:15:14.119Z,7.61
2022-11-29T04:18:17.556Z,7.61
2022-11-29T04:21:32.348Z,7.62
2022-11-29T04:24:39.097Z,7.60
2022-11-29T04:27:41.364Z,7.62
2022-11-29T04:30:23.571Z,7.60
2022-11-29T04:33:27.445Z,7.60
2022-11-29T04:36:34.501Z,7.59
2022-11-29T04:39:57.303Z,7.59
2022-11-29T04:42:49.122Z,7.56
2022-11-29T04:45:33.064Z,7.54
2022-11-29T04:48:30.393Z,7.55
2022-11-29T04:51:29.419Z,7.55
2022-11-29T04:54:35.150Z,7.56
2022-11-29T04:57:20.740Z,7.55
2022-11-29T05:00:09.787Z,7.56
2022-11-29T05:03:13.497Z,7.55
2022-11-29T05:06:03.109Z,7.54
2022-11-29T05:08:55.996Z,7.56
2022-11-29T05:11:49.980Z,7.54
2022-11-29T05:15:22.200Z,7.54
2022-11-29T05:18:21.101Z,7.54
2022-11-29T05:21:29.361Z,7.57
2022-11-29T05:24:17.264Z,7.57
2022-11-29T05:27:10.829Z,7.59
2022-11-29T05:30:02.523Z,7.60
2022-11-29T05:33:00.184Z,7.61
2022-11-29T05:35:53.559Z,7.62
2022-11-29T05:39:11.450Z,7.62
2022-11-29T05:42:09.757Z,7.63
2022-11-29T05:44:48.888Z,7.64
2022-11-29T05:47:31.750Z,7.66
2022-11-29T05:50:22.668Z,7.68
2022-11-29T05:53:10.507Z,7.69
2022-11-29T05:56:16.451Z,7.70
2022-11-29T05:58:56.799Z,7.71
2022-11-29T06:01:34.131Z,7.73
2022-11-29T06:04:18.756Z,7.73
2022-11-29T06:07:01.538Z,7.74
2022-11-29T06:09:49.887Z,7.77
2022-11-29T06:12:23.349Z,7.76
2022-11-29T06:15:31.029Z,7.79
2022-11-29T06:18:16.824Z,7.78
2022-11-29T06:21:14.572Z,7.81
2022-11-29T06:24:25.959Z,7.81
2022-11-29T06:27:25.116Z,7.79
2022-11-29T06:30:04.578Z,7.81
2022-11-29T06:33:06.204Z,7.81
2022-11-29T06:35:52.834Z,7.81
2022-11-29T06:38:32.038Z,7.81
2022-11-29T06:41:02.193Z,7.81
2022-11-29T06:43:31.668Z,7.81
2022-11-29T06:46:13.384Z,7.82
2022-11-29T06:49:02.580Z,7.81
2022-11-29T06:51:58.023Z,7.81
2022-11-29T06:54:45.121Z,7.82
2022-11-29T06:57:37.696Z,7.81
2022-11-29T07:00:11.685Z,7.82
2022-11-29T07:03:16.399Z,7.83
2022-11-29T07:05:44.561Z,7.82
2022-11-29T07:08:22.259Z,7.82
2022-11-29T07:10:54.849Z,7.81
2022-11-29T07:13:23.053Z,7.81
2022-11-29T07:16:33.650Z,7.82
2022-11-29T07:19:21.840Z,7.81
2022-11-29T07:22:22.609Z,7.82
2022-11-29T07:25:09.994Z,7.81
2022-11-29T07:28:09.801Z,7.81
2022-11-29T07:30:57.117Z,7.80
2022-11-29T07:34:14.574Z,7.81
2022-11-29T07:37:25.924Z,7.80
2022-11-29T07:40:19.965Z,7.77
2022-11-29T07:43:27.562Z,7.77
2022-11-29T07:45:57.153Z,7.75
2022-11-29T07:48:24.519Z,7.78
2022-11-29T07:50:51.904Z,7.79
2022-11-29T07:53:22.805Z,7.81
2022-11-29T07:55:50.956Z,7.79
2022-11-29T07:58:19.021Z,7.77
2022-11-29T08:00:46.633Z,7.76
2022-11-29T08:03:14.537Z,7.77
2022-11-29T08:05:47.381Z,7.78
2022-11-29T08:08:15.564Z,7.77
2022-11-29T08:10:43.332Z,7.78
2022-11-29T08:13:10.721Z,7.77
2022-11-29T08:15:45.422Z,7.77
2022-11-29T08:18:16.814Z,7.74
2022-11-29T08:20:46.086Z,7.69
2022-11-29T08:23:14.683Z,7.68
2022-11-29T08:25:42.398Z,7.66
2022-11-29T08:28:09.799Z,7.66
2022-11-29T08:30:37.339Z,7.66
2022-11-29T08:33:05.452Z,7.66
2022-11-29T08:35:35.478Z,7.68
2022-11-29T08:38:03.821Z,7.68
2022-11-29T08:40:31.256Z,7.70
2022-11-29T08:42:58.620Z,7.72
2022-11-29T08:45:26.058Z,7.72
2022-11-29T08:47:53.432Z,7.72
2022-11-29T08:50:21.373Z,7.72
2022-11-29T08:53:10.990Z,7.70
2022-11-29T08:55:42.776Z,7.69
2022-11-29T08:58:14.411Z,7.68
2022-11-29T09:00:46.759Z,7.69
2022-11-29T09:03:32.733Z,7.69
2022-11-29T09:06:11.937Z,7.70
2022-11-29T09:08:44.189Z,7.70
2022-11-29T09:11:16.016Z,7.70
2022-11-29T09:13:45.433Z,7.68
2022-11-29T09:16:20.146Z,7.68
2022-11-29T09:18:51.881Z,7.66
2022-11-29T09:21:19.883Z,7.67
2022-11-29T09:23:47.868Z,7.67
2022-11-29T09:26:20.128Z,7.66
2022-11-29T09:28:47.586Z,7.65
2022-11-29T09:31:17.822Z,7.65
2022-11-29T09:33:45.757Z,7.64
2022-11-29T09:36:13.697Z,7.64
2022-11-29T09:38:41.500Z,7.65
2022-11-29T09:41:50.661Z,7.66
2022-11-29T09:45:05.821Z,7.64
2022-11-29T09:47:58.336Z,7.64
2022-11-29T09:50:43.165Z,7.66
2022-11-29T09:53:33.310Z,7.69
2022-11-29T09:56:23.864Z,7.72
2022-11-29T09:59:05.712Z,7.75
2022-11-29T10:01:39.761Z,7.71
2022-11-29T10:04:19.017Z,7.72
2022-11-29T10:07:11.148Z,7.74
2022-11-29T10:09:51.953Z,7.76
2022-11-29T10:12:39.779Z,7.77
2022-11-29T10:15:23.007Z,7.81
2022-11-29T10:18:02.304Z,7.84
2022-11-29T10:20:40.643Z,7.86
2022-11-29T10:23:51.160Z,7.88
2022-11-29T10:26:20.716Z,7.89
2022-11-29T10:28:49.344Z,7.90
2022-11-29T10:31:32.572Z,7.91
2022-11-29T10:34:07.954Z,7.88
2022-11-29T10:37:10.655Z,7.91
2022-11-29T10:40:04.242Z,7.93
2022-11-29T10:42:52.371Z,7.95
2022-11-29T10:45:33.955Z,7.97
2022-11-29T10:48:11.786Z,7.97
2022-11-29T10:50:44.100Z,7.93
2022-11-29T10:53:25.743Z,7.92
2022-11-29T10:55:56.146Z,7.90
2022-11-29T10:58:29.633Z,7.90
2022-11-29T11:01:07.811Z,7.91
2022-11-29T11:03:42.947Z,7.91
2022-11-29T11:06:21.128Z,7.88
2022-11-29T11:08:56.282Z,7.85
2022-11-29T11:11:33.944Z,7.84
2022-11-29T11:14:24.077Z,7.82
2022-11-29T11:16:52.757Z,7.83
2022-11-29T11:19:34.441Z,7.83
2022-11-29T11:22:04.299Z,7.81
2022-11-29T11:24:39.707Z,7.82
2022-11-29T11:27:08.152Z,7.84
2022-11-29T11:29:41.901Z,7.87
2022-11-29T11:32:23.121Z,7.90
2022-11-29T11:35:00.989Z,7.93
2022-11-29T11:37:35.662Z,7.95
2022-11-29T11:40:39.363Z,7.97
2022-11-29T11:43:20.621Z,7.96
2022-11-29T11:45:54.780Z,7.95
2022-11-29T11:48:22.542Z,7.92
2022-11-29T11:50:54.402Z,7.89
2022-11-29T11:53:36.517Z,7.83
2022-11-29T11:56:14.206Z,7.78
2022-11-29T11:58:52.218Z,7.77
2022-11-29T12:01:35.919Z,7.78
2022-11-29T12:04:19.705Z,7.81
2022-11-29T12:07:38.721Z,7.84
2022-11-29T12:10:22.599Z,7.87
2022-11-29T12:12:52.089Z,7.90
2022-11-29T12:15:26.958Z,7.92
2022-11-29T12:18:25.394Z,7.95
2022-11-29T12:21:03.231Z,7.96
2022-11-29T12:23:30.599Z,7.95
2022-11-29T12:26:13.738Z,7.95
2022-11-29T12:28:47.761Z,7.90
2022-11-29T12:31:48.272Z,7.91
2022-11-29T12:34:42.770Z,7.90
2022-11-29T12:37:49.627Z,7.91
2022-11-29T12:41:10.061Z,7.89
2022-11-29T12:44:18.186Z,7.89
2022-11-29T12:50:24.566Z,7.82
2022-11-29T12:53:09.916Z,7.78
2022-11-29T12:56:06.017Z,7.78
2022-11-29T12:59:06.881Z,7.79
2022-11-29T13:02:14.755Z,7.79
2022-11-29T13:04:59.949Z,7.79
2022-11-29T13:08:03.546Z,7.80
2022-11-29T13:11:24.388Z,7.83
2022-11-29T13:17:34.255Z,7.85
2022-11-29T13:20:20.877Z,7.86
2022-11-29T13:23:01.563Z,7.89
2022-11-29T13:25:38.506Z,7.91
2022-11-29T13:28:17.975Z,7.93
2022-11-29T13:30:45.737Z,7.93
2022-11-29T13:33:31.178Z,7.95
2022-11-29T13:36:31.148Z,7.97
2022-11-29T13:39:40.140Z,8.00
2022-11-29T13:42:20.024Z,8.03
2022-11-29T13:45:06.103Z,8.06
2022-11-29T13:47:53.311Z,8.09
2022-11-29T13:50:45.927Z,8.13
2022-11-29T13:53:30.728Z,8.15
2022-11-29T13:56:01.265Z,8.18
2022-11-29T13:58:28.701Z,8.21
2022-11-29T14:01:05.579Z,8.23
2022-11-29T14:03:44.959Z,8.26
2022-11-29T14:06:21.761Z,8.26
2022-11-29T14:09:17.846Z,8.26
2022-11-29T14:11:42.338Z,8.26
2022-11-29T14:14:22.409Z,8.28
2022-11-29T14:17:03.696Z,8.30
2022-11-29T14:19:37.127Z,8.32
2022-11-29T14:22:22.021Z,8.34
2022-11-29T14:25:00.298Z,8.37
2022-11-29T14:27:27.573Z,8.38
2022-11-29T14:29:55.560Z,8.39
2022-11-29T14:32:56.420Z,8.39
2022-11-29T14:35:35.341Z,8.38
2022-11-29T14:38:30.691Z,8.38
2022-11-29T14:41:13.753Z,8.37
2022-11-29T14:43:41.561Z,8.35
2022-11-29T14:46:29.644Z,8.38
2022-11-29T14:48:59.791Z,8.38
2022-11-29T14:51:33.613Z,8.39
2022-11-29T14:54:19.895Z,8.41
2022-11-29T14:56:47.834Z,8.41
2022-11-29T14:59:48.864Z,8.43
2022-11-29T15:02:32.779Z,8.44
2022-11-29T15:05:37.964Z,8.44
2022-11-29T15:08:26.883Z,8.43
2022-11-29T15:11:04.536Z,8.43
2022-11-29T15:13:41.528Z,8.44
2022-11-29T15:16:33.016Z,8.44
2022-11-29T15:19:43.152Z,8.44
2022-11-29T15:22:26.697Z,8.43
2022-11-29T15:25:10.834Z,8.42
2022-11-29T15:27:54.813Z,8.41
2022-11-29T15:30:36.940Z,8.41
2022-11-29T15:33:18.452Z,8.39
2022-11-29T15:35:54.318Z,8.37
2022-11-29T15:38:24.321Z,8.33
2022-11-29T15:40:54.777Z,8.32
2022-11-29T15:43:34.849Z,8.27
2022-11-29T15:46:02.614Z,8.25
2022-11-29T15:48:32.456Z,8.22
2022-11-29T15:51:36.329Z,8.21
2022-11-29T15:54:29.129Z,8.15
2022-11-29T15:57:12.082Z,8.11
2022-11-29T15:59:46.468Z,8.11
2022-11-29T16:02:27.732Z,8.07
2022-11-29T16:05:01.335Z,8.05
2022-11-29T16:07:32.675Z,8.04
2022-11-29T16:10:11.742Z,8.01
2022-11-29T16:13:25.896Z,7.98
2022-11-29T16:16:16.888Z,7.89
2022-11-29T16:18:47.987Z,7.82
2022-11-29T16:21:28.264Z,7.78
2022-11-29T16:23:58.146Z,7.73
2022-11-29T16:26:35.830Z,7.70
2022-11-29T16:29:04.707Z,7.63
2022-11-29T16:31:37.043Z,7.59
2022-11-29T16:34:16.662Z,7.54
2022-11-29T16:36:44.187Z,7.43
2022-11-29T16:39:24.420Z,7.37
2022-11-29T16:42:29.273Z,7.33
2022-11-29T16:45:28.308Z,7.32
2022-11-29T16:47:59.723Z,7.32
2022-11-29T16:50:32.595Z,7.32
2022-11-29T16:53:38.984Z,7.35
2022-11-29T16:56:11.995Z,7.35
2022-11-29T16:59:25.666Z,7.36
2022-11-29T17:01:31.603Z,7.38
2022-11-29T17:04:00.652Z,7.41
2022-11-29T17:06:29.939Z,7.44
2022-11-29T17:08:59.312Z,7.47
2022-11-29T17:11:27.374Z,7.50
2022-11-29T17:13:54.918Z,7.53
2022-11-29T17:16:24.805Z,7.56
2022-11-29T17:18:53.680Z,7.57
2022-11-29T17:21:25.913Z,7.62
2022-11-29T17:23:54.340Z,7.63
2022-11-29T17:26:23.290Z,7.66
2022-11-29T17:28:51.960Z,7.68
2022-11-29T17:31:23.779Z,7.70
2022-11-29T17:33:51.554Z,7.71
2022-11-29T17:36:21.089Z,7.73
2022-11-29T17:38:48.974Z,7.75
2022-11-29T17:41:25.988Z,7.77
2022-11-29T17:43:55.609Z,7.79
2022-11-29T17:46:26.071Z,7.81
2022-11-29T17:48:55.059Z,7.82
2022-11-29T17:54:12.777Z,7.84
2022-11-29T17:56:40.234Z,7.86
2022-11-29T17:59:07.795Z,7.86
2022-11-29T18:01:36.116Z,7.86
2022-11-29T18:04:06.465Z,7.86
2022-11-29T18:06:37.739Z,7.85
2022-11-29T18:09:08.964Z,7.85
2022-11-29T18:11:48.136Z,7.83
2022-11-29T18:14:23.584Z,7.83
2022-11-29T18:16:51.830Z,7.82
2022-11-29T18:19:21.972Z,7.83
2022-11-29T18:21:50.250Z,7.81
2022-11-29T18:24:18.316Z,7.79
2022-11-29T18:26:46.981Z,7.76
2022-11-29T18:29:14.768Z,7.74
2022-11-29T18:31:45.217Z,7.73
2022-11-29T18:34:14.810Z,7.71
2022-11-29T18:36:48.345Z,7.70
2022-11-29T18:39:19.735Z,7.69
2022-11-29T18:41:49.996Z,7.65
2022-11-29T18:44:21.665Z,7.65
2022-11-29T18:46:49.117Z,7.60
2022-11-29T18:49:18.176Z,7.57
2022-11-29T18:51:48.293Z,7.59
2022-11-29T18:54:18.482Z,7.59
2022-11-29T18:56:46.240Z,7.62
2022-11-29T18:59:17.439Z,7.63
2022-11-29T19:01:47.921Z,7.64
2022-11-29T19:04:19.726Z,7.68
2022-11-29T19:06:48.115Z,7.68
2022-11-29T19:09:21.816Z,7.69
2022-11-29T19:11:50.332Z,7.67
2022-11-29T19:14:18.950Z,7.70
2022-11-29T19:16:48.863Z,7.69
2022-11-29T19:19:19.920Z,7.70
2022-11-29T19:21:47.872Z,7.71
2022-11-29T19:24:18.201Z,7.72
2022-11-29T19:26:48.332Z,7.73
2022-11-29T19:29:16.361Z,7.72
2022-11-29T19:31:44.638Z,7.69
2022-11-29T19:34:12.065Z,7.66
2022-11-29T19:36:44.953Z,7.64
2022-11-29T19:39:17.724Z,7.64
2022-11-29T19:41:47.857Z,7.63
2022-11-29T19:44:15.448Z,7.64
2022-11-29T19:46:49.109Z,7.65
2022-11-29T19:49:17.209Z,7.65
2022-11-29T19:51:44.896Z,7.64
2022-11-29T19:54:13.371Z,7.66
2022-11-29T19:56:40.922Z,7.65
2022-11-29T19:59:09.134Z,7.65
2022-11-29T20:01:41.537Z,7.64
2022-11-29T20:04:13.503Z,7.64
2022-11-29T20:06:41.857Z,7.63
2022-11-29T20:09:10.487Z,7.62
2022-11-29T20:11:38.572Z,7.63
2022-11-29T20:14:08.134Z,7.64
2022-11-29T20:16:38.860Z,7.64
2022-11-29T20:19:12.659Z,7.64
2022-11-29T20:21:44.386Z,7.63
2022-11-29T20:24:14.224Z,7.60
2022-11-29T20:26:48.229Z,7.60
2022-11-29T20:29:16.809Z,7.60
2022-11-29T20:31:50.005Z,7.60
2022-11-29T20:34:20.120Z,7.61
2022-11-29T20:37:07.479Z,7.62
2022-11-29T20:39:52.192Z,7.61
2022-11-29T20:42:49.565Z,7.61
2022-11-29T20:45:17.916Z,7.59
2022-11-29T20:48:13.058Z,7.61
2022-11-29T20:50:47.034Z,7.59
2022-11-29T20:53:43.503Z,7.60
2022-11-29T20:56:12.429Z,7.59
2022-11-29T20:58:40.119Z,7.60
2022-11-29T21:01:07.640Z,7.60
2022-11-29T21:03:35.812Z,7.62
2022-11-29T21:06:05.758Z,7.63
2022-11-29T21:08:34.875Z,7.62
2022-11-29T21:11:10.150Z,7.63
2022-11-29T21:13:38.592Z,7.62
2022-11-29T21:16:06.950Z,7.63
2022-11-29T21:18:34.782Z,7.63
2022-11-29T21:21:28.265Z,7.63
2022-11-29T21:24:00.702Z,7.62
2022-11-29T21:26:41.562Z,7.63
2022-11-29T21:29:09.455Z,7.62
2022-11-29T21:31:37.250Z,7.61
2022-11-29T21:34:04.782Z,7.62
2022-11-29T21:36:32.450Z,7.61
2022-11-29T21:39:04.865Z,7.61
2022-11-29T21:41:33.982Z,7.60
2022-11-29T21:44:08.993Z,7.62
2022-11-29T21:46:36.710Z,7.62
2022-11-29T21:49:04.953Z,7.61
2022-11-29T21:51:32.442Z,7.62
2022-11-29T21:54:01.103Z,7.62
2022-11-29T21:56:28.572Z,7.61
2022-11-29T21:58:56.055Z,7.61
2022-11-29T22:01:29.827Z,7.62
2022-11-29T22:03:57.419Z,7.61
2022-11-29T22:06:26.161Z,7.62
2022-11-29T22:08:53.865Z,7.62
2022-11-29T22:11:34.074Z,7.61
2022-11-29T22:14:19.129Z,7.61
2022-11-29T22:16:56.516Z,7.61
2022-11-29T22:19:33.562Z,7.61
2022-11-29T22:22:05.710Z,7.62
2022-11-29T22:24:36.674Z,7.61
2022-11-29T22:27:04.305Z,7.60
2022-11-29T22:29:31.768Z,7.60
2022-11-29T22:31:59.568Z,7.61
2022-11-29T22:34:28.167Z,7.63
2022-11-29T22:36:56.274Z,7.63
2022-11-29T22:39:24.086Z,7.64
2022-11-29T22:41:54.790Z,7.64
2022-11-29T22:44:24.057Z,7.65
2022-11-29T22:46:51.790Z,7.66
2022-11-29T22:49:19.406Z,7.66
2022-11-29T22:51:47.866Z,7.65
2022-11-29T22:54:16.400Z,7.65
2022-11-29T22:56:45.619Z,7.64
2022-11-29T22:59:13.927Z,7.64
2022-11-29T23:01:42.656Z,7.63
2022-11-29T23:04:12.435Z,7.63
2022-11-29T23:06:46.014Z,7.62
2022-11-29T23:09:22.052Z,7.63
2022-11-29T23:11:53.019Z,7.63
2022-11-29T23:14:22.321Z,7.64
2022-11-29T23:16:50.280Z,7.63
2022-11-29T23:19:18.341Z,7.63
2022-11-29T23:21:46.379Z,7.65
2022-11-29T23:24:15.218Z,7.64
2022-11-29T23:26:46.253Z,7.66
2022-11-29T23:29:17.971Z,7.65
2022-11-29T23:31:46.607Z,7.61
2022-11-29T23:34:14.562Z,7.62
2022-11-29T23:36:42.324Z,7.62
2022-11-29T23:39:13.512Z,7.62
2022-11-29T23:41:41.078Z,7.62
2022-11-29T23:44:09.358Z,7.63
2022-11-29T23:46:36.950Z,7.64
2022-11-29T23:49:04.350Z,7.66
2022-11-29T23:51:31.812Z,7.66
2022-11-29T23:53:59.210Z,7.67
2022-11-29T23:56:26.765Z,7.66
2022-11-29T23:58:54.230Z,7.64
